LIMC/MXP METAR and TAF weather

Enter ICAO airport designator
Station Type Date Time Source
LIMC METAR 2022/11/30 11:20 UTC NOAA

LIMC 301120Z VRB02KT 4000 BR OVC028 06/05 Q1018 NOSIG


Station Type Date Time Source
LIMC Decoded METAR 2022/11/30 11:20 UTC NOAA

Milano / Malpensa, Italy (LIMC) 45-37N 008-44E 211M
Nov 30, 2022 - 06:20 AM EST / 2022.11.30 1120 UTC
Wind: Variable at 2 MPH (2 KT):0
Visibility: 2 mile(s):0
Sky conditions: overcast
Weather: mist
Temperature: 42 F (6 C)
Dew Point: 41 F (5 C)
Relative Humidity: 93%
Pressure (altimeter): 30.06 in. Hg (1018 hPa)
ob: LIMC 301120Z VRB02KT 4000 BR OVC028 06/05 Q1018 NOSIG
cycle: 11

Station Type Date Time Source
LIMC TAF 2022/11/30 12:21 UTC NOAA

TAF LIMC 301100Z 3012/0118 VRB05KT 6000 BKN020
BECMG 3022/0101 0300 FG OVC002
TEMPO 0102/0107 0200 FZFG
BECMG 0109/0112 5000 BR FEW030

Example: see airport list